sensor_id;sensor_type;location;lat;lon;timestamp;temperature;humidity
3037;DHT22;1528;52.550;13.408;2023-03-29T00:01:23;6.70;20.70
3037;DHT22;1528;52.550;13.408;2023-03-29T00:04:15;6.70;20.10
3037;DHT22;1528;52.550;13.408;2023-03-29T00:07:03;6.70;20.00
3037;DHT22;1528;52.550;13.408;2023-03-29T00:09:49;6.80;20.00
3037;DHT22;1528;52.550;13.408;2023-03-29T00:12:35;6.70;20.00
3037;DHT22;1528;52.550;13.408;2023-03-29T00:15:21;6.70;20.30
3037;DHT22;1528;52.550;13.408;2023-03-29T00:18:07;6.80;20.30
3037;DHT22;1528;52.550;13.408;2023-03-29T00:20:58;6.80;20.60
3037;DHT22;1528;52.550;13.408;2023-03-29T00:23:43;6.70;20.20
3037;DHT22;1528;52.550;13.408;2023-03-29T00:26:29;6.70;20.10
3037;DHT22;1528;52.550;13.408;2023-03-29T00:29:15;6.80;20.70
3037;DHT22;1528;52.550;13.408;2023-03-29T00:32:01;6.60;20.20
3037;DHT22;1528;52.550;13.408;2023-03-29T00:34:46;6.50;20.40
3037;DHT22;1528;52.550;13.408;2023-03-29T00:37:35;6.60;20.30
3037;DHT22;1528;52.550;13.408;2023-03-29T00:40:21;6.50;20.40
3037;DHT22;1528;52.550;13.408;2023-03-29T00:43:09;6.60;20.50
3037;DHT22;1528;52.550;13.408;2023-03-29T00:45:54;6.70;21.00
3037;DHT22;1528;52.550;13.408;2023-03-29T00:48:40;6.70;20.90
3037;DHT22;1528;52.550;13.408;2023-03-29T00:51:29;6.80;20.30
3037;DHT22;1528;52.550;13.408;2023-03-29T00:54:18;6.60;20.30
3037;DHT22;1528;52.550;13.408;2023-03-29T00:57:28;6.50;20.40
3037;DHT22;1528;52.550;13.408;2023-03-29T01:00:16;6.60;20.50
3037;DHT22;1528;52.550;13.408;2023-03-29T01:03:07;6.70;20.40
3037;DHT22;1528;52.550;13.408;2023-03-29T01:06:00;6.50;20.20
3037;DHT22;1528;52.550;13.408;2023-03-29T01:08:51;6.60;20.40
3037;DHT22;1528;52.550;13.408;2023-03-29T01:11:43;6.70;20.30
3037;DHT22;1528;52.550;13.408;2023-03-29T01:14:33;6.70;20.30
3037;DHT22;1528;52.550;13.408;2023-03-29T01:17:20;6.70;20.20
3037;DHT22;1528;52.550;13.408;2023-03-29T01:20:14;6.60;20.60
3037;DHT22;1528;52.550;13.408;2023-03-29T01:23:16;6.50;20.80
3037;DHT22;1528;52.550;13.408;2023-03-29T01:26:10;6.60;20.60
3037;DHT22;1528;52.550;13.408;2023-03-29T01:29:03;6.60;20.50
3037;DHT22;1528;52.550;13.408;2023-03-29T01:31:55;6.70;20.60
3037;DHT22;1528;52.550;13.408;2023-03-29T01:34:44;6.70;20.10
3037;DHT22;1528;52.550;13.408;2023-03-29T01:37:35;6.70;20.20
3037;DHT22;1528;52.550;13.408;2023-03-29T01:40:22;6.60;20.40
3037;DHT22;1528;52.550;13.408;2023-03-29T01:43:15;6.70;20.30
3037;DHT22;1528;52.550;13.408;2023-03-29T01:46:08;6.60;20.30
3037;DHT22;1528;52.550;13.408;2023-03-29T01:48:58;6.60;20.30
3037;DHT22;1528;52.550;13.408;2023-03-29T01:51:51;6.60;20.60
3037;DHT22;1528;52.550;13.408;2023-03-29T01:54:42;6.60;20.20
3037;DHT22;1528;52.550;13.408;2023-03-29T01:57:32;6.60;20.00
3037;DHT22;1528;52.550;13.408;2023-03-29T02:00:21;6.80;20.30
3037;DHT22;1528;52.550;13.408;2023-03-29T02:03:09;6.70;20.20
3037;DHT22;1528;52.550;13.408;2023-03-29T02:05:58;6.60;19.90
3037;DHT22;1528;52.550;13.408;2023-03-29T02:08:45;6.60;20.00
3037;DHT22;1528;52.550;13.408;2023-03-29T02:11:30;6.50;20.10
3037;DHT22;1528;52.550;13.408;2023-03-29T02:14:16;6.50;19.80
3037;DHT22;1528;52.550;13.408;2023-03-29T02:17:15;6.50;19.90
3037;DHT22;1528;52.550;13.408;2023-03-29T02:23:44;6.70;19.10
3037;DHT22;1528;52.550;13.408;2023-03-29T02:26:32;6.70;18.90
3037;DHT22;1528;52.550;13.408;2023-03-29T02:29:18;6.60;19.30
3037;DHT22;1528;52.550;13.408;2023-03-29T02:32:10;6.60;19.10
3037;DHT22;1528;52.550;13.408;2023-03-29T02:34:59;6.60;19.00
3037;DHT22;1528;52.550;13.408;2023-03-29T02:37:47;6.60;18.90
3037;DHT22;1528;52.550;13.408;2023-03-29T02:40:38;6.50;19.20
3037;DHT22;1528;52.550;13.408;2023-03-29T02:43:26;6.50;18.90
3037;DHT22;1528;52.550;13.408;2023-03-29T02:46:13;6.50;19.10
3037;DHT22;1528;52.550;13.408;2023-03-29T02:49:00;6.50;19.40
3037;DHT22;1528;52.550;13.408;2023-03-29T02:51:50;6.30;19.00
3037;DHT22;1528;52.550;13.408;2023-03-29T02:54:37;6.40;19.30
3037;DHT22;1528;52.550;13.408;2023-03-29T02:57:28;6.40;19.20
3037;DHT22;1528;52.550;13.408;2023-03-29T03:00:16;6.50;19.60
3037;DHT22;1528;52.550;13.408;2023-03-29T03:03:03;6.30;19.60
3037;DHT22;1528;52.550;13.408;2023-03-29T03:05:50;6.30;19.40
3037;DHT22;1528;52.550;13.408;2023-03-29T03:08:36;6.20;19.90
3037;DHT22;1528;52.550;13.408;2023-03-29T03:11:21;6.20;19.60
3037;DHT22;1528;52.550;13.408;2023-03-29T03:14:08;6.10;19.80
3037;DHT22;1528;52.550;13.408;2023-03-29T03:16:54;5.90;20.40
3037;DHT22;1528;52.550;13.408;2023-03-29T03:19:41;5.90;20.10
3037;DHT22;1528;52.550;13.408;2023-03-29T03:22:27;6.00;20.10
3037;DHT22;1528;52.550;13.408;2023-03-29T03:25:12;6.00;20.20
3037;DHT22;1528;52.550;13.408;2023-03-29T03:27:58;6.10;20.20
3037;DHT22;1528;52.550;13.408;2023-03-29T03:30:45;6.00;20.20
3037;DHT22;1528;52.550;13.408;2023-03-29T03:33:31;6.00;20.10
3037;DHT22;1528;52.550;13.408;2023-03-29T03:36:16;6.00;20.20
3037;DHT22;1528;52.550;13.408;2023-03-29T03:39:02;6.10;20.40
3037;DHT22;1528;52.550;13.408;2023-03-29T03:41:50;6.10;20.20
3037;DHT22;1528;52.550;13.408;2023-03-29T03:44:35;6.10;20.00
3037;DHT22;1528;52.550;13.408;2023-03-29T03:47:23;6.00;20.00
3037;DHT22;1528;52.550;13.408;2023-03-29T03:50:09;6.10;19.80
3037;DHT22;1528;52.550;13.408;2023-03-29T03:52:55;6.10;20.00
3037;DHT22;1528;52.550;13.408;2023-03-29T03:55:40;6.20;19.80
3037;DHT22;1528;52.550;13.408;2023-03-29T03:58:27;6.20;20.00
3037;DHT22;1528;52.550;13.408;2023-03-29T04:01:13;6.20;20.00
3037;DHT22;1528;52.550;13.408;2023-03-29T04:04:01;6.00;20.10
3037;DHT22;1528;52.550;13.408;2023-03-29T04:06:47;6.00;20.90
3037;DHT22;1528;52.550;13.408;2023-03-29T04:09:33;6.10;20.50
3037;DHT22;1528;52.550;13.408;2023-03-29T04:12:19;6.20;19.80
3037;DHT22;1528;52.550;13.408;2023-03-29T04:15:07;6.10;19.90
3037;DHT22;1528;52.550;13.408;2023-03-29T04:17:54;6.10;20.30
3037;DHT22;1528;52.550;13.408;2023-03-29T04:20:41;6.10;20.00
3037;DHT22;1528;52.550;13.408;2023-03-29T04:23:27;6.00;20.30
3037;DHT22;1528;52.550;13.408;2023-03-29T04:26:13;6.00;20.50
3037;DHT22;1528;52.550;13.408;2023-03-29T04:28:58;6.20;20.40
3037;DHT22;1528;52.550;13.408;2023-03-29T04:31:44;6.10;20.30
3037;DHT22;1528;52.550;13.408;2023-03-29T04:34:30;6.10;20.20
3037;DHT22;1528;52.550;13.408;2023-03-29T04:37:17;5.90;20.10
3037;DHT22;1528;52.550;13.408;2023-03-29T04:40:06;6.10;20.00
3037;DHT22;1528;52.550;13.408;2023-03-29T04:42:53;6.10;19.90
3037;DHT22;1528;52.550;13.408;2023-03-29T04:45:39;6.00;20.10
3037;DHT22;1528;52.550;13.408;2023-03-29T04:48:25;5.90;20.10
3037;DHT22;1528;52.550;13.408;2023-03-29T04:51:11;6.00;20.10
3037;DHT22;1528;52.550;13.408;2023-03-29T04:53:59;6.00;19.90
3037;DHT22;1528;52.550;13.408;2023-03-29T04:56:44;5.90;19.50
3037;DHT22;1528;52.550;13.408;2023-03-29T04:59:30;5.90;20.00
3037;DHT22;1528;52.550;13.408;2023-03-29T05:02:15;5.90;20.30
3037;DHT22;1528;52.550;13.408;2023-03-29T05:05:01;5.90;20.60
3037;DHT22;1528;52.550;13.408;2023-03-29T05:07:46;5.80;20.10
3037;DHT22;1528;52.550;13.408;2023-03-29T05:10:33;5.90;20.10
3037;DHT22;1528;52.550;13.408;2023-03-29T05:13:19;6.00;20.20
3037;DHT22;1528;52.550;13.408;2023-03-29T05:16:05;6.00;20.90
3037;DHT22;1528;52.550;13.408;2023-03-29T05:18:51;6.10;19.80
3037;DHT22;1528;52.550;13.408;2023-03-29T05:21:38;6.10;19.80
3037;DHT22;1528;52.550;13.408;2023-03-29T05:24:24;6.00;19.70
3037;DHT22;1528;52.550;13.408;2023-03-29T05:27:10;6.00;20.10
3037;DHT22;1528;52.550;13.408;2023-03-29T05:29:56;6.00;20.20
3037;DHT22;1528;52.550;13.408;2023-03-29T05:32:42;6.00;19.80
3037;DHT22;1528;52.550;13.408;2023-03-29T05:35:28;6.00;19.80
3037;DHT22;1528;52.550;13.408;2023-03-29T05:38:13;6.30;20.10
3037;DHT22;1528;52.550;13.408;2023-03-29T05:40:59;6.30;19.60
3037;DHT22;1528;52.550;13.408;2023-03-29T05:43:46;6.20;19.70
3037;DHT22;1528;52.550;13.408;2023-03-29T05:46:32;6.20;19.30
3037;DHT22;1528;52.550;13.408;2023-03-29T05:49:18;6.20;19.60
3037;DHT22;1528;52.550;13.408;2023-03-29T05:52:04;6.10;19.10
3037;DHT22;1528;52.550;13.408;2023-03-29T05:54:50;6.30;19.40
3037;DHT22;1528;52.550;13.408;2023-03-29T05:57:36;6.40;19.20
3037;DHT22;1528;52.550;13.408;2023-03-29T06:00:24;6.40;19.10
3037;DHT22;1528;52.550;13.408;2023-03-29T06:03:13;6.50;19.00
3037;DHT22;1528;52.550;13.408;2023-03-29T06:06:03;6.50;18.80
3037;DHT22;1528;52.550;13.408;2023-03-29T06:08:48;6.60;18.90
3037;DHT22;1528;52.550;13.408;2023-03-29T06:11:34;6.60;18.60
3037;DHT22;1528;52.550;13.408;2023-03-29T06:14:20;6.60;18.80
3037;DHT22;1528;52.550;13.408;2023-03-29T06:17:08;6.60;18.50
3037;DHT22;1528;52.550;13.408;2023-03-29T06:19:53;6.70;18.60
3037;DHT22;1528;52.550;13.408;2023-03-29T06:22:40;6.60;18.40
3037;DHT22;1528;52.550;13.408;2023-03-29T06:25:26;6.70;18.40
3037;DHT22;1528;52.550;13.408;2023-03-29T06:28:12;6.60;18.30
3037;DHT22;1528;52.550;13.408;2023-03-29T06:30:58;6.60;18.40
3037;DHT22;1528;52.550;13.408;2023-03-29T06:33:46;6.80;18.60
3037;DHT22;1528;52.550;13.408;2023-03-29T06:36:32;6.70;18.50
3037;DHT22;1528;52.550;13.408;2023-03-29T06:43:12;6.80;18.30
3037;DHT22;1528;52.550;13.408;2023-03-29T06:45:58;7.00;18.40
3037;DHT22;1528;52.550;13.408;2023-03-29T06:48:44;7.20;18.10
3037;DHT22;1528;52.550;13.408;2023-03-29T06:51:32;7.20;17.40
3037;DHT22;1528;52.550;13.408;2023-03-29T06:54:18;7.20;17.60
3037;DHT22;1528;52.550;13.408;2023-03-29T06:57:04;7.30;17.70
3037;DHT22;1528;52.550;13.408;2023-03-29T06:59:50;7.40;17.90
3037;DHT22;1528;52.550;13.408;2023-03-29T07:02:36;7.40;17.00
3037;DHT22;1528;52.550;13.408;2023-03-29T07:05:23;7.40;17.40
3037;DHT22;1528;52.550;13.408;2023-03-29T07:08:11;7.30;17.80
3037;DHT22;1528;52.550;13.408;2023-03-29T07:10:59;7.40;17.40
3037;DHT22;1528;52.550;13.408;2023-03-29T07:13:46;7.30;17.90
3037;DHT22;1528;52.550;13.408;2023-03-29T07:16:32;7.50;17.40
3037;DHT22;1528;52.550;13.408;2023-03-29T07:19:21;7.70;16.90
3037;DHT22;1528;52.550;13.408;2023-03-29T07:22:08;7.40;17.50
3037;DHT22;1528;52.550;13.408;2023-03-29T07:24:55;7.60;17.70
3037;DHT22;1528;52.550;13.408;2023-03-29T07:27:44;7.60;17.40
3037;DHT22;1528;52.550;13.408;2023-03-29T07:30:31;7.80;17.30
3037;DHT22;1528;52.550;13.408;2023-03-29T07:33:17;8.10;17.20
3037;DHT22;1528;52.550;13.408;2023-03-29T07:36:02;8.30;16.10
3037;DHT22;1528;52.550;13.408;2023-03-29T07:38:49;8.20;16.60
3037;DHT22;1528;52.550;13.408;2023-03-29T07:41:36;8.40;16.50
3037;DHT22;1528;52.550;13.408;2023-03-29T07:44:22;8.70;16.10
3037;DHT22;1528;52.550;13.408;2023-03-29T07:47:08;8.60;15.60
3037;DHT22;1528;52.550;13.408;2023-03-29T07:49:53;8.80;14.90
3037;DHT22;1528;52.550;13.408;2023-03-29T07:52:40;8.90;15.70
3037;DHT22;1528;52.550;13.408;2023-03-29T07:55:26;8.70;14.90
3037;DHT22;1528;52.550;13.408;2023-03-29T07:58:13;8.70;14.90
3037;DHT22;1528;52.550;13.408;2023-03-29T08:00:59;8.90;14.90
3037;DHT22;1528;52.550;13.408;2023-03-29T08:03:45;9.00;14.80
3037;DHT22;1528;52.550;13.408;2023-03-29T08:06:31;9.10;14.20
3037;DHT22;1528;52.550;13.408;2023-03-29T08:09:16;9.10;14.60
3037;DHT22;1528;52.550;13.408;2023-03-29T08:12:02;9.00;14.10
3037;DHT22;1528;52.550;13.408;2023-03-29T08:14:49;9.20;14.40
3037;DHT22;1528;52.550;13.408;2023-03-29T08:17:36;9.30;14.50
3037;DHT22;1528;52.550;13.408;2023-03-29T08:20:21;9.10;14.30
3037;DHT22;1528;52.550;13.408;2023-03-29T08:23:07;9.20;14.40
3037;DHT22;1528;52.550;13.408;2023-03-29T08:25:53;9.30;14.30
3037;DHT22;1528;52.550;13.408;2023-03-29T08:28:38;9.20;14.60
3037;DHT22;1528;52.550;13.408;2023-03-29T08:31:26;9.30;15.30
3037;DHT22;1528;52.550;13.408;2023-03-29T08:34:11;9.40;15.70
3037;DHT22;1528;52.550;13.408;2023-03-29T08:36:57;9.50;15.30
3037;DHT22;1528;52.550;13.408;2023-03-29T08:39:43;9.40;14.70
3037;DHT22;1528;52.550;13.408;2023-03-29T08:42:40;9.30;15.40
3037;DHT22;1528;52.550;13.408;2023-03-29T08:45:31;9.30;15.90
3037;DHT22;1528;52.550;13.408;2023-03-29T08:48:26;9.20;15.40
3037;DHT22;1528;52.550;13.408;2023-03-29T08:51:18;9.30;15.40
3037;DHT22;1528;52.550;13.408;2023-03-29T08:54:09;9.50;15.10
3037;DHT22;1528;52.550;13.408;2023-03-29T08:56:59;9.50;15.20
3037;DHT22;1528;52.550;13.408;2023-03-29T08:59:49;9.40;15.00
3037;DHT22;1528;52.550;13.408;2023-03-29T09:02:36;9.40;15.40
3037;DHT22;1528;52.550;13.408;2023-03-29T09:05:26;9.60;15.40
3037;DHT22;1528;52.550;13.408;2023-03-29T09:08:15;9.90;15.20
3037;DHT22;1528;52.550;13.408;2023-03-29T09:11:13;10.30;13.90
3037;DHT22;1528;52.550;13.408;2023-03-29T09:14:15;10.60;13.80
3037;DHT22;1528;52.550;13.408;2023-03-29T09:17:11;10.90;14.40
3037;DHT22;1528;52.550;13.408;2023-03-29T09:20:06;11.00;14.60
3037;DHT22;1528;52.550;13.408;2023-03-29T09:23:06;11.00;13.90
3037;DHT22;1528;52.550;13.408;2023-03-29T09:26:01;10.90;14.20
3037;DHT22;1528;52.550;13.408;2023-03-29T09:28:55;11.00;14.60
3037;DHT22;1528;52.550;13.408;2023-03-29T09:31:44;11.10;14.10
3037;DHT22;1528;52.550;13.408;2023-03-29T09:34:32;11.10;14.20
3037;DHT22;1528;52.550;13.408;2023-03-29T09:37:26;11.20;14.70
3037;DHT22;1528;52.550;13.408;2023-03-29T09:40:18;11.40;14.10
3037;DHT22;1528;52.550;13.408;2023-03-29T09:43:09;11.20;14.10
3037;DHT22;1528;52.550;13.408;2023-03-29T09:45:58;11.00;14.60
3037;DHT22;1528;52.550;13.408;2023-03-29T09:48:47;11.10;14.70
3037;DHT22;1528;52.550;13.408;2023-03-29T09:51:33;11.20;14.40
3037;DHT22;1528;52.550;13.408;2023-03-29T09:54:19;11.40;14.30
3037;DHT22;1528;52.550;13.408;2023-03-29T09:57:09;11.30;14.40
3037;DHT22;1528;52.550;13.408;2023-03-29T09:59:56;11.40;14.40
3037;DHT22;1528;52.550;13.408;2023-03-29T10:02:49;11.90;14.60
3037;DHT22;1528;52.550;13.408;2023-03-29T10:05:36;12.90;12.40
3037;DHT22;1528;52.550;13.408;2023-03-29T10:08:24;12.70;12.20
3037;DHT22;1528;52.550;13.408;2023-03-29T10:11:12;12.40;12.40
3037;DHT22;1528;52.550;13.408;2023-03-29T10:14:10;12.00;13.40
3037;DHT22;1528;52.550;13.408;2023-03-29T10:16:56;12.00;13.20
3037;DHT22;1528;52.550;13.408;2023-03-29T10:19:48;12.00;13.90
3037;DHT22;1528;52.550;13.408;2023-03-29T10:22:36;12.20;13.50
3037;DHT22;1528;52.550;13.408;2023-03-29T10:25:26;12.00;13.50
3037;DHT22;1528;52.550;13.408;2023-03-29T10:28:14;12.20;13.50
3037;DHT22;1528;52.550;13.408;2023-03-29T10:31:02;12.50;13.20
3037;DHT22;1528;52.550;13.408;2023-03-29T10:33:52;12.60;12.80
3037;DHT22;1528;52.550;13.408;2023-03-29T10:36:39;12.70;13.20
3037;DHT22;1528;52.550;13.408;2023-03-29T10:39:27;13.00;12.90
3037;DHT22;1528;52.550;13.408;2023-03-29T10:42:17;13.30;12.20
3037;DHT22;1528;52.550;13.408;2023-03-29T10:45:18;13.50;11.40
3037;DHT22;1528;52.550;13.408;2023-03-29T10:48:11;13.60;11.50
3037;DHT22;1528;52.550;13.408;2023-03-29T10:50:59;13.60;12.00
3037;DHT22;1528;52.550;13.408;2023-03-29T10:53:44;13.80;11.80
3037;DHT22;1528;52.550;13.408;2023-03-29T10:56:37;14.10;11.40
3037;DHT22;1528;52.550;13.408;2023-03-29T10:59:28;14.10;11.30
3037;DHT22;1528;52.550;13.408;2023-03-29T11:02:36;14.10;11.10
3037;DHT22;1528;52.550;13.408;2023-03-29T11:05:32;13.80;11.40
3037;DHT22;1528;52.550;13.408;2023-03-29T11:08:27;13.70;11.50
3037;DHT22;1528;52.550;13.408;2023-03-29T11:11:34;13.70;12.10
3037;DHT22;1528;52.550;13.408;2023-03-29T11:14:31;14.00;11.30
3037;DHT22;1528;52.550;13.408;2023-03-29T11:17:31;13.70;11.60
3037;DHT22;1528;52.550;13.408;2023-03-29T11:20:25;13.60;11.80
3037;DHT22;1528;52.550;13.408;2023-03-29T11:23:26;13.70;12.00
3037;DHT22;1528;52.550;13.408;2023-03-29T11:26:17;14.00;11.90
3037;DHT22;1528;52.550;13.408;2023-03-29T11:29:10;14.50;11.60
3037;DHT22;1528;52.550;13.408;2023-03-29T11:32:05;14.90;10.40
3037;DHT22;1528;52.550;13.408;2023-03-29T11:35:01;15.10;10.10
3037;DHT22;1528;52.550;13.408;2023-03-29T11:37:51;14.80;9.90
3037;DHT22;1528;52.550;13.408;2023-03-29T11:40:49;15.10;10.00
3037;DHT22;1528;52.550;13.408;2023-03-29T11:43:39;15.40;8.80
3037;DHT22;1528;52.550;13.408;2023-03-29T11:46:29;15.40;9.10
3037;DHT22;1528;52.550;13.408;2023-03-29T11:49:18;15.40;9.30
3037;DHT22;1528;52.550;13.408;2023-03-29T11:52:10;15.10;9.50
3037;DHT22;1528;52.550;13.408;2023-03-29T11:55:01;15.00;9.40
3037;DHT22;1528;52.550;13.408;2023-03-29T11:57:51;15.10;9.50
3037;DHT22;1528;52.550;13.408;2023-03-29T12:00:41;15.30;9.80
3037;DHT22;1528;52.550;13.408;2023-03-29T12:03:35;15.20;10.10
3037;DHT22;1528;52.550;13.408;2023-03-29T12:06:25;15.10;10.00
3037;DHT22;1528;52.550;13.408;2023-03-29T12:09:22;15.30;9.70
3037;DHT22;1528;52.550;13.408;2023-03-29T12:12:14;15.50;9.00
3037;DHT22;1528;52.550;13.408;2023-03-29T12:15:07;15.80;8.70
3037;DHT22;1528;52.550;13.408;2023-03-29T12:18:04;16.30;8.70
3037;DHT22;1528;52.550;13.408;2023-03-29T12:20:54;16.60;6.10
3037;DHT22;1528;52.550;13.408;2023-03-29T12:23:41;16.50;6.80
3037;DHT22;1528;52.550;13.408;2023-03-29T12:26:53;16.60;6.40
3037;DHT22;1528;52.550;13.408;2023-03-29T12:29:57;16.70;6.40
3037;DHT22;1528;52.550;13.408;2023-03-29T12:32:59;17.60;5.60
3037;DHT22;1528;52.550;13.408;2023-03-29T12:35:57;17.40;5.60
3037;DHT22;1528;52.550;13.408;2023-03-29T12:38:50;16.90;6.50
3037;DHT22;1528;52.550;13.408;2023-03-29T12:41:37;16.50;6.40
3037;DHT22;1528;52.550;13.408;2023-03-29T12:44:24;15.90;6.30
3037;DHT22;1528;52.550;13.408;2023-03-29T12:47:18;15.30;7.90
3037;DHT22;1528;52.550;13.408;2023-03-29T12:50:14;15.10;8.60
3037;DHT22;1528;52.550;13.408;2023-03-29T12:53:05;15.10;8.50
3037;DHT22;1528;52.550;13.408;2023-03-29T12:56:07;14.90;7.80
3037;DHT22;1528;52.550;13.408;2023-03-29T12:59:03;14.80;8.20
3037;DHT22;1528;52.550;13.408;2023-03-29T13:01:58;14.70;9.00
3037;DHT22;1528;52.550;13.408;2023-03-29T13:04:48;15.00;8.90
3037;DHT22;1528;52.550;13.408;2023-03-29T13:07:45;15.20;8.30
3037;DHT22;1528;52.550;13.408;2023-03-29T13:10:38;15.40;8.70
3037;DHT22;1528;52.550;13.408;2023-03-29T13:13:27;15.70;7.50
3037;DHT22;1528;52.550;13.408;2023-03-29T13:16:16;15.60;7.90
3037;DHT22;1528;52.550;13.408;2023-03-29T13:19:12;15.00;8.00
3037;DHT22;1528;52.550;13.408;2023-03-29T13:22:18;14.80;9.20
3037;DHT22;1528;52.550;13.408;2023-03-29T13:25:24;15.10;9.00
3037;DHT22;1528;52.550;13.408;2023-03-29T13:28:17;15.00;9.00
3037;DHT22;1528;52.550;13.408;2023-03-29T13:31:06;14.90;9.60
3037;DHT22;1528;52.550;13.408;2023-03-29T13:34:00;14.90;9.60
3037;DHT22;1528;52.550;13.408;2023-03-29T13:36:56;14.60;9.80
3037;DHT22;1528;52.550;13.408;2023-03-29T13:39:48;14.60;10.00
3037;DHT22;1528;52.550;13.408;2023-03-29T13:42:39;14.60;9.90
3037;DHT22;1528;52.550;13.408;2023-03-29T13:45:27;14.50;9.60
3037;DHT22;1528;52.550;13.408;2023-03-29T13:48:24;14.50;10.00
3037;DHT22;1528;52.550;13.408;2023-03-29T13:51:26;14.60;9.80
3037;DHT22;1528;52.550;13.408;2023-03-29T13:54:22;14.50;10.00
3037;DHT22;1528;52.550;13.408;2023-03-29T13:57:13;14.60;9.80
3037;DHT22;1528;52.550;13.408;2023-03-29T14:00:04;14.70;10.00
3037;DHT22;1528;52.550;13.408;2023-03-29T14:02:56;14.70;9.70
3037;DHT22;1528;52.550;13.408;2023-03-29T14:05:48;14.80;8.70
3037;DHT22;1528;52.550;13.408;2023-03-29T14:08:38;14.70;9.10
3037;DHT22;1528;52.550;13.408;2023-03-29T14:11:27;14.60;9.60
3037;DHT22;1528;52.550;13.408;2023-03-29T14:14:13;14.40;9.90
3037;DHT22;1528;52.550;13.408;2023-03-29T14:17:00;14.30;10.20
3037;DHT22;1528;52.550;13.408;2023-03-29T14:19:46;14.40;10.10
3037;DHT22;1528;52.550;13.408;2023-03-29T14:22:33;14.70;9.70
3037;DHT22;1528;52.550;13.408;2023-03-29T14:25:20;14.50;9.90
3037;DHT22;1528;52.550;13.408;2023-03-29T14:28:20;14.50;9.70
3037;DHT22;1528;52.550;13.408;2023-03-29T14:31:16;14.40;10.40
3037;DHT22;1528;52.550;13.408;2023-03-29T14:34:05;14.20;11.00
3037;DHT22;1528;52.550;13.408;2023-03-29T14:36:51;14.20;10.30
3037;DHT22;1528;52.550;13.408;2023-03-29T14:39:38;14.00;10.60
3037;DHT22;1528;52.550;13.408;2023-03-29T14:42:26;13.90;11.20
3037;DHT22;1528;52.550;13.408;2023-03-29T14:45:15;13.80;11.50
3037;DHT22;1528;52.550;13.408;2023-03-29T14:48:01;13.80;11.40
3037;DHT22;1528;52.550;13.408;2023-03-29T14:50:49;13.50;11.50
3037;DHT22;1528;52.550;13.408;2023-03-29T14:53:35;13.40;12.20
3037;DHT22;1528;52.550;13.408;2023-03-29T14:56:21;13.60;12.30
3037;DHT22;1528;52.550;13.408;2023-03-29T14:59:24;13.70;12.30
3037;DHT22;1528;52.550;13.408;2023-03-29T15:02:25;13.70;12.20
3037;DHT22;1528;52.550;13.408;2023-03-29T15:05:29;13.80;11.80
3037;DHT22;1528;52.550;13.408;2023-03-29T15:08:26;13.70;12.40
3037;DHT22;1528;52.550;13.408;2023-03-29T15:11:15;13.70;12.80
3037;DHT22;1528;52.550;13.408;2023-03-29T15:14:04;13.70;12.60
3037;DHT22;1528;52.550;13.408;2023-03-29T15:16:51;13.50;13.50
3037;DHT22;1528;52.550;13.408;2023-03-29T15:19:38;13.60;13.30
3037;DHT22;1528;52.550;13.408;2023-03-29T15:22:30;13.70;13.10
3037;DHT22;1528;52.550;13.408;2023-03-29T15:25:19;13.50;13.70
3037;DHT22;1528;52.550;13.408;2023-03-29T15:28:05;13.40;14.50
3037;DHT22;1528;52.550;13.408;2023-03-29T15:30:50;13.50;14.00
3037;DHT22;1528;52.550;13.408;2023-03-29T15:33:40;13.20;15.50
3037;DHT22;1528;52.550;13.408;2023-03-29T15:36:26;13.10;15.90
3037;DHT22;1528;52.550;13.408;2023-03-29T15:39:12;13.20;16.00
3037;DHT22;1528;52.550;13.408;2023-03-29T15:41:59;13.40;16.00
3037;DHT22;1528;52.550;13.408;2023-03-29T15:44:46;13.70;15.70
3037;DHT22;1528;52.550;13.408;2023-03-29T15:47:32;13.70;15.70
3037;DHT22;1528;52.550;13.408;2023-03-29T15:50:18;14.00;15.50
3037;DHT22;1528;52.550;13.408;2023-03-29T15:53:04;14.10;15.50
3037;DHT22;1528;52.550;13.408;2023-03-29T15:55:50;14.00;15.40
3037;DHT22;1528;52.550;13.408;2023-03-29T15:58:38;13.90;15.60
3037;DHT22;1528;52.550;13.408;2023-03-29T16:01:26;14.00;15.70
3037;DHT22;1528;52.550;13.408;2023-03-29T16:04:19;13.90;15.90
3037;DHT22;1528;52.550;13.408;2023-03-29T16:07:06;13.70;16.10
3037;DHT22;1528;52.550;13.408;2023-03-29T16:09:55;13.70;16.20
3037;DHT22;1528;52.550;13.408;2023-03-29T16:12:41;13.70;16.10
3037;DHT22;1528;52.550;13.408;2023-03-29T16:15:30;13.70;16.90
3037;DHT22;1528;52.550;13.408;2023-03-29T16:18:16;13.70;15.90
3037;DHT22;1528;52.550;13.408;2023-03-29T16:21:02;13.70;16.00
3037;DHT22;1528;52.550;13.408;2023-03-29T16:23:47;13.70;15.70
3037;DHT22;1528;52.550;13.408;2023-03-29T16:26:34;13.60;16.40
3037;DHT22;1528;52.550;13.408;2023-03-29T16:29:20;13.70;15.80
3037;DHT22;1528;52.550;13.408;2023-03-29T16:32:08;13.50;16.10
3037;DHT22;1528;52.550;13.408;2023-03-29T16:34:54;13.50;16.60
3037;DHT22;1528;52.550;13.408;2023-03-29T16:37:41;13.50;16.30
3037;DHT22;1528;52.550;13.408;2023-03-29T16:40:27;13.40;16.10
3037;DHT22;1528;52.550;13.408;2023-03-29T16:43:13;13.30;16.40
3037;DHT22;1528;52.550;13.408;2023-03-29T16:45:59;13.10;17.00
3037;DHT22;1528;52.550;13.408;2023-03-29T16:48:46;13.20;17.40
3037;DHT22;1528;52.550;13.408;2023-03-29T16:51:34;13.10;17.10
3037;DHT22;1528;52.550;13.408;2023-03-29T16:54:20;13.10;17.50
3037;DHT22;1528;52.550;13.408;2023-03-29T16:57:08;13.20;17.20
3037;DHT22;1528;52.550;13.408;2023-03-29T16:59:54;13.10;17.50
3037;DHT22;1528;52.550;13.408;2023-03-29T17:02:40;13.00;17.60
3037;DHT22;1528;52.550;13.408;2023-03-29T17:05:27;13.00;17.60
3037;DHT22;1528;52.550;13.408;2023-03-29T17:08:13;13.00;18.20
3037;DHT22;1528;52.550;13.408;2023-03-29T17:10:59;13.10;17.70
3037;DHT22;1528;52.550;13.408;2023-03-29T17:13:45;13.10;17.70
3037;DHT22;1528;52.550;13.408;2023-03-29T17:16:30;13.10;17.70
3037;DHT22;1528;52.550;13.408;2023-03-29T17:19:16;13.00;17.90
3037;DHT22;1528;52.550;13.408;2023-03-29T17:22:03;12.90;18.00
3037;DHT22;1528;52.550;13.408;2023-03-29T17:24:48;12.90;18.30
3037;DHT22;1528;52.550;13.408;2023-03-29T17:27:34;12.80;18.40
3037;DHT22;1528;52.550;13.408;2023-03-29T17:30:20;12.80;18.60
3037;DHT22;1528;52.550;13.408;2023-03-29T17:33:06;12.80;18.90
3037;DHT22;1528;52.550;13.408;2023-03-29T17:35:52;12.70;18.90
3037;DHT22;1528;52.550;13.408;2023-03-29T17:38:39;12.70;19.00
3037;DHT22;1528;52.550;13.408;2023-03-29T17:41:25;12.80;18.80
3037;DHT22;1528;52.550;13.408;2023-03-29T17:44:11;12.80;19.10
3037;DHT22;1528;52.550;13.408;2023-03-29T17:46:56;12.80;19.20
3037;DHT22;1528;52.550;13.408;2023-03-29T17:49:42;12.80;19.30
3037;DHT22;1528;52.550;13.408;2023-03-29T17:52:27;12.80;19.20
3037;DHT22;1528;52.550;13.408;2023-03-29T17:55:15;12.70;19.50
3037;DHT22;1528;52.550;13.408;2023-03-29T17:58:01;12.80;19.60
3037;DHT22;1528;52.550;13.408;2023-03-29T18:00:47;12.80;19.40
3037;DHT22;1528;52.550;13.408;2023-03-29T18:03:32;12.70;19.90
3037;DHT22;1528;52.550;13.408;2023-03-29T18:06:18;12.70;19.90
3037;DHT22;1528;52.550;13.408;2023-03-29T18:09:04;12.70;19.80
3037;DHT22;1528;52.550;13.408;2023-03-29T18:11:51;12.70;20.00
3037;DHT22;1528;52.550;13.408;2023-03-29T18:14:36;12.70;20.20
3037;DHT22;1528;52.550;13.408;2023-03-29T18:17:22;12.70;20.20
3037;DHT22;1528;52.550;13.408;2023-03-29T18:20:11;12.70;20.30
3037;DHT22;1528;52.550;13.408;2023-03-29T18:22:56;12.70;20.40